createdAt,value
2023-02-16T00:05:34.046Z,11.43
2023-02-16T00:11:26.471Z,11.39
2023-02-16T00:17:10.693Z,11.42
2023-02-16T00:22:54.515Z,11.37
2023-02-16T00:28:38.356Z,11.39
2023-02-16T00:34:32.141Z,11.35
2023-02-16T00:40:16.647Z,11.36
2023-02-16T00:46:01.415Z,11.32
2023-02-16T00:51:45.550Z,11.29
2023-02-16T00:57:32.156Z,11.27
2023-02-16T01:03:18.007Z,11.24
2023-02-16T01:09:11.177Z,11.24
2023-02-16T01:14:55.119Z,11.22
2023-02-16T01:20:38.934Z,11.17
2023-02-16T01:26:22.905Z,11.14
2023-02-16T01:32:06.863Z,11.1
2023-02-16T01:37:50.880Z,11.11
2023-02-16T01:43:39.349Z,11.07
2023-02-16T01:49:22.875Z,11.06
2023-02-16T01:55:11.704Z,11.05
2023-02-16T02:01:09.052Z,11.02
2023-02-16T02:06:52.912Z,11.05
2023-02-16T02:12:40.358Z,11.01
2023-02-16T02:18:24.473Z,10.99
2023-02-16T02:24:17.342Z,10.96
2023-02-16T02:30:08.863Z,10.97
2023-02-16T02:35:57.734Z,10.94
2023-02-16T02:41:46.408Z,10.94
2023-02-16T02:47:41.451Z,10.93
2023-02-16T02:53:25.191Z,10.93
2023-02-16T02:59:10.172Z,10.91
2023-02-16T03:04:56.384Z,10.87
2023-02-16T03:10:41.648Z,10.85
2023-02-16T03:16:27.403Z,10.85
2023-02-16T03:22:11.528Z,10.84
2023-02-16T03:27:55.958Z,10.86
2023-02-16T03:33:40.172Z,10.83
2023-02-16T03:39:24.115Z,10.82
2023-02-16T03:45:09.257Z,10.84
2023-02-16T03:50:52.931Z,10.83
2023-02-16T03:56:36.716Z,10.84
2023-02-16T04:02:21.090Z,10.85
2023-02-16T04:08:05.052Z,10.86
2023-02-16T04:13:48.966Z,10.86
2023-02-16T04:19:32.768Z,10.86
2023-02-16T04:25:17.278Z,10.89
2023-02-16T04:31:01.234Z,10.94
2023-02-16T04:36:47.131Z,10.96
2023-02-16T04:42:31.636Z,10.97
2023-02-16T04:48:15.469Z,11.01
2023-02-16T04:53:59.222Z,11.02
2023-02-16T04:59:43.074Z,11.06
2023-02-16T05:05:26.689Z,11.12
2023-02-16T05:11:10.434Z,11.13
2023-02-16T05:16:54.007Z,11.17
2023-02-16T05:22:37.696Z,11.18
2023-02-16T05:28:22.820Z,11.21
2023-02-16T05:34:07.563Z,11.23
2023-02-16T05:39:51.348Z,11.25
2023-02-16T05:45:34.879Z,11.26
2023-02-16T05:51:19.154Z,11.28
2023-02-16T05:57:02.819Z,11.32
2023-02-16T06:02:46.526Z,11.3
2023-02-16T06:08:31.034Z,11.3
2023-02-16T06:14:16.113Z,11.35
2023-02-16T06:19:59.801Z,11.33
2023-02-16T06:25:45.530Z,11.37
2023-02-16T06:31:29.155Z,11.46
2023-02-16T06:37:16.055Z,11.58
2023-02-16T06:42:59.888Z,11.5
2023-02-16T06:48:44.778Z,11.44
2023-02-16T06:54:29.475Z,11.49
2023-02-16T07:00:14.383Z,11.44
2023-02-16T07:05:57.912Z,11.43
2023-02-16T07:11:41.578Z,11.44
2023-02-16T07:17:25.319Z,11.48
2023-02-16T07:23:08.944Z,11.53
2023-02-16T07:28:52.580Z,11.67
2023-02-16T07:34:36.673Z,11.74
2023-02-16T07:40:21.536Z,11.79
2023-02-16T07:46:05.330Z,11.74
2023-02-16T07:51:49.568Z,11.87
2023-02-16T07:57:33.423Z,11.85
2023-02-16T08:03:16.210Z,11.85
2023-02-16T08:09:00.506Z,11.84
2023-02-16T08:14:44.639Z,11.93
2023-02-16T08:20:45.222Z,11.93
2023-02-16T08:26:33.926Z,12.04
2023-02-16T08:32:17.759Z,12.24
2023-02-16T08:38:01.797Z,12.3
2023-02-16T08:43:45.548Z,12.41
2023-02-16T08:49:29.103Z,12.43
2023-02-16T08:55:12.759Z,12.57
2023-02-16T09:00:56.602Z,12.58
2023-02-16T09:06:43.294Z,12.71
2023-02-16T09:12:27.222Z,12.75
2023-02-16T09:18:11.482Z,12.9
2023-02-16T09:23:55.558Z,13.07
2023-02-16T09:29:40.307Z,13.25
2023-02-16T09:35:24.093Z,13.47
2023-02-16T09:41:16.291Z,13.55
2023-02-16T09:47:02.714Z,13.59
2023-02-16T09:52:50.956Z,13.71
2023-02-16T09:58:39.209Z,13.77
2023-02-16T10:04:30.516Z,13.87
2023-02-16T10:10:16.186Z,13.96
2023-02-16T10:16:01.606Z,14
2023-02-16T10:21:47.776Z,14.06
2023-02-16T10:27:33.610Z,14.13
2023-02-16T10:33:22.263Z,14.21
2023-02-16T10:39:09.280Z,14.33
2023-02-16T10:44:57.941Z,14.43
2023-02-16T10:50:42.226Z,14.51
2023-02-16T10:56:36.279Z,14.67
2023-02-16T11:02:25.532Z,15.06
2023-02-16T11:08:09.848Z,15.26
2023-02-16T11:13:57.891Z,15.33
2023-02-16T11:19:46.634Z,15.41
2023-02-16T11:25:30.433Z,15.61
2023-02-16T11:31:19.320Z,15.61
2023-02-16T11:37:09.320Z,15.63
2023-02-16T11:42:54.205Z,15.69
2023-02-16T11:48:37.935Z,15.71
2023-02-16T11:54:22.191Z,15.86
2023-02-16T12:00:11.459Z,15.76
2023-02-16T12:06:01.401Z,15.73
2023-02-16T12:11:51.814Z,15.78
2023-02-16T12:17:43.775Z,15.84
2023-02-16T12:23:35.865Z,16.05
2023-02-16T12:29:24.429Z,16.23
2023-02-16T12:35:18.559Z,16.48
2023-02-16T12:41:06.685Z,16.67
2023-02-16T12:46:55.451Z,16.77
2023-02-16T12:52:42.357Z,16.93
2023-02-16T12:58:29.096Z,16.99
2023-02-16T13:04:17.898Z,17.17
2023-02-16T13:10:03.848Z,17.23
2023-02-16T13:15:48.234Z,17.24
2023-02-16T13:21:58.525Z,17.3
2023-02-16T13:27:45.182Z,17.44
2023-02-16T13:33:40.424Z,17.6
2023-02-16T13:39:35.293Z,17.49
2023-02-16T13:45:20.857Z,17.52
2023-02-16T13:51:08.575Z,17.58
2023-02-16T13:56:53.554Z,17.51
2023-02-16T14:02:51.274Z,17.53
2023-02-16T14:08:35.202Z,17.67
2023-02-16T14:14:30.260Z,17.64
2023-02-16T14:20:28.009Z,17.61
2023-02-16T14:26:11.892Z,17.63
2023-02-16T14:31:59.599Z,17.51
2023-02-16T14:37:44.390Z,17.48
2023-02-16T14:43:32.049Z,17.53
2023-02-16T14:49:32.632Z,17.48
2023-02-16T14:55:27.415Z,17.5
2023-02-16T15:01:12.787Z,17.43
2023-02-16T15:06:58.451Z,17.33
2023-02-16T15:12:42.264Z,17.32
2023-02-16T15:18:28.027Z,17.19
2023-02-16T15:24:20.373Z,17.15
2023-02-16T15:30:15.939Z,17.11
2023-02-16T15:36:00.766Z,17.11
2023-02-16T15:41:46.172Z,17.02
2023-02-16T15:47:29.741Z,16.93
2023-02-16T15:53:20.076Z,16.78
2023-02-16T15:59:05.459Z,16.61
2023-02-16T16:04:51.207Z,16.51
2023-02-16T16:10:38.364Z,16.38
2023-02-16T16:16:22.280Z,16.28
2023-02-16T16:22:14.864Z,16.2
2023-02-16T16:27:58.540Z,16.1
2023-02-16T16:33:59.219Z,16.01
2023-02-16T16:39:43.139Z,16.01
2023-02-16T16:45:40.062Z,15.89
2023-02-16T16:51:28.850Z,15.87
2023-02-16T16:57:16.712Z,15.79
2023-02-16T17:03:00.708Z,15.75
2023-02-16T17:08:44.665Z,15.67
2023-02-16T17:14:28.589Z,15.72
2023-02-16T17:20:13.975Z,15.69
2023-02-16T17:25:57.817Z,15.55
2023-02-16T17:31:42.190Z,15.47
2023-02-16T17:37:26.804Z,15.4
2023-02-16T17:43:19.634Z,15.3
2023-02-16T17:49:03.403Z,15.27
2023-02-16T17:54:47.070Z,15.26
2023-02-16T18:00:30.856Z,15.19
2023-02-16T18:06:15.921Z,15.12
2023-02-16T18:11:59.792Z,15.07
2023-02-16T18:17:43.572Z,15
2023-02-16T18:23:27.430Z,14.96
2023-02-16T18:29:11.776Z,14.91
2023-02-16T18:34:56.614Z,14.82
2023-02-16T18:40:40.703Z,14.94
2023-02-16T18:46:24.570Z,15.14
2023-02-16T18:52:08.747Z,14.95
2023-02-16T18:57:52.585Z,14.79
2023-02-16T19:03:36.425Z,14.72
2023-02-16T19:09:20.280Z,14.66
2023-02-16T19:15:05.218Z,14.62
2023-02-16T19:20:48.784Z,14.56
2023-02-16T19:26:32.850Z,14.53
2023-02-16T19:32:16.584Z,14.49
2023-02-16T19:38:00.569Z,14.49
2023-02-16T19:43:44.774Z,14.48
2023-02-16T19:49:28.343Z,14.46
2023-02-16T19:55:12.326Z,14.44
2023-02-16T20:00:56.115Z,14.47
2023-02-16T20:06:39.844Z,14.43
2023-02-16T20:12:23.654Z,14.4
2023-02-16T20:18:07.536Z,14.37
2023-02-16T20:23:53.136Z,14.37
2023-02-16T20:29:36.979Z,14.34
2023-02-16T20:35:20.814Z,14.36
2023-02-16T20:41:05.023Z,14.39
2023-02-16T20:46:48.953Z,14.37
2023-02-16T20:52:33.163Z,14.36
2023-02-16T20:58:16.895Z,14.36
2023-02-16T21:04:00.653Z,14.36
2023-02-16T21:09:44.470Z,14.35
2023-02-16T21:15:28.198Z,14.3
2023-02-16T21:21:11.941Z,14.28
2023-02-16T21:26:55.428Z,14.34
2023-02-16T21:32:39.054Z,14.37
2023-02-16T21:38:22.641Z,14.36
2023-02-16T21:44:07.291Z,14.33
2023-02-16T21:49:50.962Z,14.29
2023-02-16T21:55:35.744Z,14.28
2023-02-16T22:01:23.692Z,14.27
2023-02-16T22:07:07.386Z,14.28
2023-02-16T22:12:51.074Z,14.25
2023-02-16T22:18:34.798Z,14.22
2023-02-16T22:24:19.204Z,14.25
2023-02-16T22:30:03.921Z,14.25
2023-02-16T22:35:49.185Z,14.31
2023-02-16T22:41:33.569Z,14.39
2023-02-16T22:47:17.384Z,14.41
2023-02-16T22:53:01.099Z,14.43
2023-02-16T22:58:44.899Z,14.39
2023-02-16T23:04:29.030Z,14.36
2023-02-16T23:10:12.920Z,14.48
2023-02-16T23:15:57.147Z,14.44
2023-02-16T23:21:41.185Z,14.37
2023-02-16T23:27:25.130Z,14.39
2023-02-16T23:33:08.904Z,14.39
2023-02-16T23:38:52.567Z,14.3
2023-02-16T23:44:36.212Z,14.26
2023-02-16T23:50:19.847Z,14.24
2023-02-16T23:56:04.966Z,14.19
